Houn Maru — JG5489 — position and weather

sailwx.info

Track history (hours):
 
Tides and Currents Weather Stations Pressure Air Temp Water Temp Dewpoint Dewpoint Depression Visibility Wind Speed Wind Dir Waves Ship Positions

Houn Maru

Last reported at 2016-Aug-29 05:33 UTC. Time now 2016-Aug-30 01:19 UTC.
Position N 34°36' E 135°04'.

Length 91 m; draft 4.5 m.

Type: Tanker. MMSI: 431101172.

Date/timePositionNaut miles runAvg speedWind from/ knotsBaromVisibWave heightAir tempDewpointWater temp
2016-Aug-29 05:33N 34°36' E 135°04'1111.3
2016-Aug-29 04:33N 34°26' E 135°11'3 0.7
2016-Aug-29 00:14N 34°25' E 135°14'2 2.7
2016-Aug-28 23:32N 34°24' E 135°13'0 0.2
2016-Aug-28 22:32N 34°24' E 135°13'0 0.0
2016-Aug-28 21:32N 34°24' E 135°13'0 0.0
2016-Aug-28 20:32N 34°24' E 135°13'0 0.0
2016-Aug-28 19:32N 34°24' E 135°13'0 0.0
2016-Aug-28 18:32N 34°24' E 135°13'0 0.0
2016-Aug-28 17:32N 34°24' E 135°13'0 0.0
2016-Aug-28 16:32N 34°24' E 135°13'0 0.0
2016-Aug-28 15:26N 34°24' E 135°13'0 0.0
2016-Aug-28 14:26N 34°24' E 135°13'1 1.3
2016-Aug-28 13:33N 34°24' E 135°12'1211.8
2016-Aug-28 12:33N 34°34' E 135°04'7 0.2
2016-Aug-27 01:10N 34°36' E 134°55'6 9.5
2016-Aug-27 00:33N 34°37' E 135°02'4 4.3
2016-Aug-26 23:32N 34°38' E 135°08'0 0.0
2016-Aug-26 22:32N 34°38' E 135°08'0 0.0
2016-Aug-26 21:32N 34°38' E 135°08'0 0.0
2016-Aug-26 20:26N 34°38' E 135°08'0 0.0
2016-Aug-26 19:32N 34°38' E 135°08'0 0.0
2016-Aug-26 18:32N 34°38' E 135°08'0 0.1
2016-Aug-26 17:32N 34°38' E 135°08'0 0.1
2016-Aug-26 16:32N 34°38' E 135°08'0 0.0
2016-Aug-26 15:32N 34°38' E 135°08'0 0.1
2016-Aug-26 14:20N 34°38' E 135°08'0 0.0
2016-Aug-26 13:32N 34°38' E 135°08'0 0.0
2016-Aug-26 12:32N 34°38' E 135°08'0 0.0
2016-Aug-26 11:26N 34°38' E 135°08'0 0.1
2016-Aug-26 10:32N 34°38' E 135°08'0 0.1
2016-Aug-26 09:32N 34°38' E 135°08'0 0.0
2016-Aug-26 08:32N 34°38' E 135°08'4 3.9
2016-Aug-26 07:33N 34°34' E 135°09'1010.1
2016-Aug-26 06:33N 34°25' E 135°14'1 0.2
2016-Aug-26 01:33N 34°24' E 135°13'1 0.7
2016-Aug-26 00:26N 34°23' E 135°13'0 0.0
2016-Aug-25 23:33N 34°23' E 135°13'0 0.0
2016-Aug-25 22:33N 34°23' E 135°13'0 0.0
2016-Aug-25 21:33N 34°23' E 135°13'0 0.0
2016-Aug-25 20:33N 34°23' E 135°13'0 0.0
2016-Aug-25 19:33N 34°23' E 135°13'0 0.0
2016-Aug-25 18:33N 34°23' E 135°13'0 0.0
2016-Aug-25 17:33N 34°23' E 135°13'0 0.0
2016-Aug-25 16:33N 34°23' E 135°13'0 0.1
2016-Aug-25 15:33N 34°23' E 135°13'0 0.0
2016-Aug-25 14:33N 34°23' E 135°13'0 0.4
2016-Aug-25 13:34N 34°24' E 135°12'1211.5
2016-Aug-25 12:33N 34°33' E 135°05'10 0.3
2016-Aug-24 01:18N 34°36' E 134°53'912.7
2016-Aug-24 00:33N 34°36' E 135°05'1313.0
2016-Aug-23 23:33N 34°37' E 135°20'6 0.3
2016-Aug-23 06:06N 34°35' E 135°27'2 3.9
2016-Aug-23 05:32N 34°36' E 135°24'1111.7
2016-Aug-23 04:33N 34°29' E 135°14'4 1.2
2016-Aug-23 01:31N 34°25' E 135°14'0 0.0
2016-Aug-23 00:09N 34°25' E 135°14'2 3.8
2016-Aug-22 23:33N 34°23' E 135°13'0 0.0
2016-Aug-22 22:27N 34°23' E 135°13'2 0.2
2016-Aug-22 13:33N 34°24' E 135°12'1211.5
2016-Aug-22 12:33N 34°34' E 135°04'3 0.1
2016-Aug-20 23:33N 34°37' E 135°01'5 5.0
2016-Aug-20 22:31N 34°38' E 135°08'0 0.0
2016-Aug-20 21:25N 34°38' E 135°08'0 0.0
2016-Aug-20 20:31N 34°38' E 135°08'0 0.0
2016-Aug-20 19:31N 34°38' E 135°08'0 0.1
2016-Aug-20 18:31N 34°38' E 135°08'0 0.0
2016-Aug-20 17:31N 34°38' E 135°08'0 0.1
2016-Aug-20 16:31N 34°37' E 135°08'0 0.0
2016-Aug-20 15:31N 34°37' E 135°08'0 0.0
2016-Aug-20 14:31N 34°38' E 135°08'0 0.0
2016-Aug-20 13:31N 34°38' E 135°08'0 0.0
2016-Aug-20 12:31N 34°38' E 135°08'0 0.0
2016-Aug-20 11:31N 34°38' E 135°08'0 0.0
2016-Aug-20 10:31N 34°37' E 135°08'0 0.0
2016-Aug-20 09:31N 34°37' E 135°08'0 0.0
2016-Aug-20 08:25N 34°38' E 135°08'0 0.0
2016-Aug-20 07:31N 34°38' E 135°08'0 0.1
2016-Aug-20 06:25N 34°38' E 135°08'0 0.1
2016-Aug-20 05:31N 34°38' E 135°08'1010.4
2016-Aug-20 04:33N 34°28' E 135°10'4 4.2
2016-Aug-20 03:30N 34°25' E 135°14'0 0.0
2016-Aug-20 02:30N 34°25' E 135°14'0 0.0
2016-Aug-20 01:24N 34°25' E 135°14'0 0.0
2016-Aug-20 00:24N 34°25' E 135°14'3 3.1
2016-Aug-19 23:33N 34°23' E 135°12'0 0.1
2016-Aug-19 22:32N 34°23' E 135°12'0 0.0
2016-Aug-19 21:32N 34°23' E 135°12'0 0.0
2016-Aug-19 20:32N 34°23' E 135°12'0 0.0
2016-Aug-19 19:32N 34°23' E 135°12'0 0.0
2016-Aug-19 18:32N 34°23' E 135°12'0 0.0
2016-Aug-19 17:32N 34°23' E 135°12'1010.2
2016-Aug-19 16:33N 34°31' E 135°05'  
Track history (hours):
 
Tides and Currents Weather Stations Pressure Air Temp Water Temp Dewpoint Dewpoint Depression Visibility Wind Speed Wind Dir Waves Ship Positions

Houn Maru

Last reported at 2016-Aug-29 05:33 UTC. Time now 2016-Aug-30 01:19 UTC.
Position N 34°36' E 135°04'.

Length 91 m; draft 4.5 m.

Type: Tanker. MMSI: 431101172.

Date/timePositionNaut miles runAvg speedWind from/ knotsBaromVisibWave heightAir tempDewpointWater temp
2016-Aug-29 05:33N 34°36' E 135°04'1111.3
2016-Aug-29 04:33N 34°26' E 135°11'3 0.7
2016-Aug-29 00:14N 34°25' E 135°14'2 2.7
2016-Aug-28 23:32N 34°24' E 135°13'0 0.2
2016-Aug-28 22:32N 34°24' E 135°13'0 0.0
2016-Aug-28 21:32N 34°24' E 135°13'0 0.0
2016-Aug-28 20:32N 34°24' E 135°13'0 0.0
2016-Aug-28 19:32N 34°24' E 135°13'0 0.0
2016-Aug-28 18:32N 34°24' E 135°13'0 0.0
2016-Aug-28 17:32N 34°24' E 135°13'0 0.0
2016-Aug-28 16:32N 34°24' E 135°13'0 0.0
2016-Aug-28 15:26N 34°24' E 135°13'0 0.0
2016-Aug-28 14:26N 34°24' E 135°13'1 1.3
2016-Aug-28 13:33N 34°24' E 135°12'1211.8
2016-Aug-28 12:33N 34°34' E 135°04'7 0.2
2016-Aug-27 01:10N 34°36' E 134°55'6 9.5
2016-Aug-27 00:33N 34°37' E 135°02'4 4.3
2016-Aug-26 23:32N 34°38' E 135°08'0 0.0
2016-Aug-26 22:32N 34°38' E 135°08'0 0.0
2016-Aug-26 21:32N 34°38' E 135°08'0 0.0
2016-Aug-26 20:26N 34°38' E 135°08'0 0.0
2016-Aug-26 19:32N 34°38' E 135°08'0 0.0
2016-Aug-26 18:32N 34°38' E 135°08'0 0.1
2016-Aug-26 17:32N 34°38' E 135°08'0 0.1
2016-Aug-26 16:32N 34°38' E 135°08'0 0.0
2016-Aug-26 15:32N 34°38' E 135°08'0 0.1
2016-Aug-26 14:20N 34°38' E 135°08'0 0.0
2016-Aug-26 13:32N 34°38' E 135°08'0 0.0
2016-Aug-26 12:32N 34°38' E 135°08'0 0.0
2016-Aug-26 11:26N 34°38' E 135°08'0 0.1
2016-Aug-26 10:32N 34°38' E 135°08'0 0.1
2016-Aug-26 09:32N 34°38' E 135°08'0 0.0
2016-Aug-26 08:32N 34°38' E 135°08'4 3.9
2016-Aug-26 07:33N 34°34' E 135°09'1010.1
2016-Aug-26 06:33N 34°25' E 135°14'1 0.2
2016-Aug-26 01:33N 34°24' E 135°13'1 0.7
2016-Aug-26 00:26N 34°23' E 135°13'0 0.0
2016-Aug-25 23:33N 34°23' E 135°13'0 0.0
2016-Aug-25 22:33N 34°23' E 135°13'0 0.0
2016-Aug-25 21:33N 34°23' E 135°13'0 0.0
2016-Aug-25 20:33N 34°23' E 135°13'0 0.0
2016-Aug-25 19:33N 34°23' E 135°13'0 0.0
2016-Aug-25 18:33N 34°23' E 135°13'0 0.0
2016-Aug-25 17:33N 34°23' E 135°13'0 0.0
2016-Aug-25 16:33N 34°23' E 135°13'0 0.1
2016-Aug-25 15:33N 34°23' E 135°13'0 0.0
2016-Aug-25 14:33N 34°23' E 135°13'0 0.4
2016-Aug-25 13:34N 34°24' E 135°12'1211.5
2016-Aug-25 12:33N 34°33' E 135°05'10 0.3
2016-Aug-24 01:18N 34°36' E 134°53'912.7
2016-Aug-24 00:33N 34°36' E 135°05'1313.0
2016-Aug-23 23:33N 34°37' E 135°20'6 0.3
2016-Aug-23 06:06N 34°35' E 135°27'2 3.9
2016-Aug-23 05:32N 34°36' E 135°24'1111.7
2016-Aug-23 04:33N 34°29' E 135°14'4 1.2
2016-Aug-23 01:31N 34°25' E 135°14'0 0.0
2016-Aug-23 00:09N 34°25' E 135°14'2 3.8
2016-Aug-22 23:33N 34°23' E 135°13'0 0.0
2016-Aug-22 22:27N 34°23' E 135°13'2 0.2
2016-Aug-22 13:33N 34°24' E 135°12'1211.5
2016-Aug-22 12:33N 34°34' E 135°04'3 0.1
2016-Aug-20 23:33N 34°37' E 135°01'5 5.0
2016-Aug-20 22:31N 34°38' E 135°08'0 0.0
2016-Aug-20 21:25N 34°38' E 135°08'0 0.0
2016-Aug-20 20:31N 34°38' E 135°08'0 0.0
2016-Aug-20 19:31N 34°38' E 135°08'0 0.1
2016-Aug-20 18:31N 34°38' E 135°08'0 0.0
2016-Aug-20 17:31N 34°38' E 135°08'0 0.1
2016-Aug-20 16:31N 34°37' E 135°08'0 0.0
2016-Aug-20 15:31N 34°37' E 135°08'0 0.0
2016-Aug-20 14:31N 34°38' E 135°08'0 0.0
2016-Aug-20 13:31N 34°38' E 135°08'0 0.0
2016-Aug-20 12:31N 34°38' E 135°08'0 0.0
2016-Aug-20 11:31N 34°38' E 135°08'0 0.0
2016-Aug-20 10:31N 34°37' E 135°08'0 0.0
2016-Aug-20 09:31N 34°37' E 135°08'0 0.0
2016-Aug-20 08:25N 34°38' E 135°08'0 0.0
2016-Aug-20 07:31N 34°38' E 135°08'0 0.1
2016-Aug-20 06:25N 34°38' E 135°08'0 0.1
2016-Aug-20 05:31N 34°38' E 135°08'1010.4
2016-Aug-20 04:33N 34°28' E 135°10'4 4.2
2016-Aug-20 03:30N 34°25' E 135°14'0 0.0
2016-Aug-20 02:30N 34°25' E 135°14'0 0.0
2016-Aug-20 01:24N 34°25' E 135°14'0 0.0
2016-Aug-20 00:24N 34°25' E 135°14'3 3.1
2016-Aug-19 23:33N 34°23' E 135°12'0 0.1
2016-Aug-19 22:32N 34°23' E 135°12'0 0.0
2016-Aug-19 21:32N 34°23' E 135°12'0 0.0
2016-Aug-19 20:32N 34°23' E 135°12'0 0.0
2016-Aug-19 19:32N 34°23' E 135°12'0 0.0
2016-Aug-19 18:32N 34°23' E 135°12'0 0.0
2016-Aug-19 17:32N 34°23' E 135°12'1010.2
2016-Aug-19 16:33N 34°31' E 135°05'  

Dump ship's entire track history